Time;durP1;ratioP1;P1;durP2;ratioP2;P2;SDS_P1;SDS_P2;PMS_P1;PMS_P2;Temp;Humidity;BMP_temperature;BMP_pressure;BME280_temperature;BME280_humidity;BME280_pressure;Samples;Min_cycle;Max_cycle;Signal;HPM_P1;HPM_P2
2022/02/07 00:00:22;;;;;;;1.08;0.98;;;17.00;65.30;;;;;;4927323;29;20059;-19
2022/02/07 00:05:25;;;;;;;1.00;0.90;;;17.00;65.30;;;;;;4934380;29;20116;-19
2022/02/07 00:07:51;;;;;;;2.75;1.10;;;17.00;65.30;;;;;;4935111;29;20026;-19
2022/02/07 00:10:17;;;;;;;1.27;1.10;;;17.00;65.20;;;;;;4939095;29;20056;-19
2022/02/07 00:12:45;;;;;;;1.10;1.00;;;17.00;65.20;;;;;;4938995;29;20027;-19
2022/02/07 00:15:11;;;;;;;0.98;0.88;;;17.00;65.20;;;;;;4933976;29;20036;-18
2022/02/07 00:17:37;;;;;;;1.08;0.98;;;17.00;65.20;;;;;;4931827;29;20028;-19
2022/02/07 00:20:08;;;;;;;1.73;0.98;;;17.00;65.10;;;;;;4929354;29;20552;-19
2022/02/07 00:22:33;;;;;;;1.02;0.95;;;17.10;65.30;;;;;;4939021;29;20187;-19
2022/02/07 00:24:59;;;;;;;2.78;1.20;;;17.00;65.10;;;;;;4933809;29;20075;-19
2022/02/07 00:27:24;;;;;;;1.48;0.93;;;17.00;65.10;;;;;;4927096;29;20024;-19
2022/02/07 00:29:50;;;;;;;1.42;1.10;;;17.00;65.10;;;;;;4938627;29;20043;-19
2022/02/07 00:32:16;;;;;;;0.77;0.77;;;17.00;65.20;;;;;;4928100;29;20079;-18
2022/02/07 00:34:41;;;;;;;1.42;1.13;;;17.00;65.10;;;;;;4938456;29;20038;-19
2022/02/07 00:37:07;;;;;;;1.23;1.02;;;17.00;65.10;;;;;;4938592;29;20563;-19
2022/02/07 00:39:42;;;;;;;1.10;1.00;;;17.00;65.10;;;;;;4938942;29;20057;-19
2022/02/07 00:42:12;;;;;;;0.90;0.90;;;17.00;65.20;;;;;;4922690;29;20084;-19
2022/02/07 00:44:37;;;;;;;1.38;0.90;;;17.00;65.20;;;;;;4932146;29;20078;-19
2022/02/07 00:47:09;;;;;;;1.30;1.00;;;17.00;65.10;;;;;;4944539;29;20028;-19
2022/02/07 00:49:34;;;;;;;0.70;0.70;;;17.00;65.20;;;;;;4929496;29;20032;-19
2022/02/07 00:52:00;;;;;;;0.95;0.68;;;17.00;65.10;;;;;;4929374;29;20913;-19
2022/02/07 00:54:26;;;;;;;0.98;0.90;;;17.00;65.00;;;;;;4920098;29;20047;-19
2022/02/07 00:56:52;;;;;;;0.80;0.80;;;17.10;65.20;;;;;;4919311;29;20056;-19
2022/02/07 00:59:17;;;;;;;1.30;0.93;;;17.00;65.10;;;;;;4928326;29;20492;-19
2022/02/07 01:01:43;;;;;;;1.35;0.82;;;17.00;65.10;;;;;;4926172;29;20080;-19
2022/02/07 01:04:09;;;;;;;1.00;0.90;;;17.00;65.10;;;;;;4924463;29;20043;-19
2022/02/07 01:06:34;;;;;;;2.17;0.80;;;17.00;65.10;;;;;;4938887;29;20394;-19
2022/02/07 01:09:45;;;;;;;1.67;0.80;;;17.00;65.10;;;;;;4929119;29;20035;-19
2022/02/07 01:14:28;;;;;;;0.80;0.77;;;17.00;65.10;;;;;;4935539;29;20087;-19
2022/02/07 01:53:02;;;;;;;0.95;0.70;;;16.90;65.10;;;;;;4934554;29;20042;-19
2022/02/07 01:55:12;;;;;;;1.15;0.68;;;16.90;65.10;;;;;;4918923;29;20052;-19
2022/02/07 01:57:38;;;;;;;0.52;0.50;;;16.90;65.10;;;;;;4935655;29;20039;-19
2022/02/07 02:00:05;;;;;;;0.77;0.60;;;16.90;65.50;;;;;;4937934;29;20036;-19
2022/02/07 02:02:32;;;;;;;2.10;0.80;;;16.90;65.30;;;;;;4934421;29;20047;-19
2022/02/07 02:04:58;;;;;;;0.60;0.60;;;16.90;65.20;;;;;;4940212;29;20067;-19
2022/02/07 02:07:23;;;;;;;1.48;0.85;;;16.90;65.10;;;;;;4941634;29;20069;-18
2022/02/07 02:09:49;;;;;;;0.60;0.40;;;16.90;65.10;;;;;;4926301;29;20569;-19
2022/02/07 02:12:15;;;;;;;0.80;0.80;;;16.90;65.10;;;;;;4920905;29;20059;-19
2022/02/07 02:14:54;;;;;;;0.70;0.60;;;16.90;65.10;;;;;;4934304;29;20028;-19
2022/02/07 02:18:05;;;;;;;0.73;0.60;;;16.90;65.10;;;;;;4932625;29;20036;-19
2022/02/07 02:46:55;;;;;;;0.60;0.40;;;16.90;65.10;;;;;;4936577;29;19918;-19
2022/02/07 02:49:21;;;;;;;0.82;0.57;;;16.90;65.10;;;;;;4937202;29;20036;-19
2022/02/07 02:51:46;;;;;;;0.70;0.63;;;16.90;65.00;;;;;;4938859;29;20030;-19
2022/02/07 02:54:12;;;;;;;0.60;0.60;;;16.90;65.20;;;;;;4932707;29;20111;-19
2022/02/07 02:56:38;;;;;;;0.50;0.40;;;16.80;65.10;;;;;;4936557;29;20039;-19
2022/02/07 02:59:04;;;;;;;0.63;0.63;;;16.90;65.10;;;;;;4935630;29;20103;-19
2022/02/07 03:01:29;;;;;;;0.85;0.60;;;16.90;65.10;;;;;;4936527;29;20143;-19
2022/02/07 03:03:55;;;;;;;0.75;0.70;;;16.90;65.10;;;;;;4936611;29;20031;-19
2022/02/07 03:06:21;;;;;;;0.77;0.70;;;16.90;65.10;;;;;;4936842;29;20493;-19
2022/02/07 03:08:46;;;;;;;1.25;0.80;;;16.80;65.10;;;;;;4936339;29;20066;-19
2022/02/07 03:11:18;;;;;;;0.60;0.50;;;16.80;65.00;;;;;;4938980;29;20030;-19
2022/02/07 03:13:56;;;;;;;0.70;0.70;;;16.80;65.10;;;;;;4938463;29;20143;-19
2022/02/07 03:16:38;;;;;;;0.80;0.80;;;16.90;65.20;;;;;;4935628;29;20040;-19
2022/02/07 03:19:08;;;;;;;1.70;0.73;;;16.80;65.20;;;;;;4937172;29;20030;-19
2022/02/07 03:21:33;;;;;;;0.70;0.70;;;16.80;65.30;;;;;;4932932;29;20039;-19
2022/02/07 03:23:59;;;;;;;0.75;0.57;;;16.80;65.30;;;;;;4938007;29;20028;-19
2022/02/07 03:26:25;;;;;;;0.80;0.70;;;16.80;65.30;;;;;;4938339;29;20030;-19
2022/02/07 03:28:51;;;;;;;0.52;0.40;;;16.80;65.20;;;;;;4936569;29;20512;-19
2022/02/07 03:31:20;;;;;;;0.90;0.65;;;16.80;65.30;;;;;;4937121;29;20027;-19
2022/02/07 03:33:45;;;;;;;0.77;0.60;;;16.80;65.10;;;;;;4939380;29;20051;-19
2022/02/07 03:36:12;;;;;;;1.20;0.70;;;16.80;65.10;;;;;;4938374;29;20031;-19
2022/02/07 03:38:37;;;;;;;1.35;0.63;;;16.80;65.10;;;;;;4937378;29;20042;-19
2022/02/07 03:41:03;;;;;;;0.65;0.60;;;16.90;65.10;;;;;;4937200;29;20035;-19
2022/02/07 03:43:29;;;;;;;0.70;0.65;;;16.80;65.00;;;;;;4937154;29;20031;-19
2022/02/07 03:45:54;;;;;;;1.05;0.80;;;16.80;65.10;;;;;;4936935;29;20036;-19
2022/02/07 03:48:20;;;;;;;0.55;0.55;;;16.80;65.10;;;;;;4936541;29;20055;-19
2022/02/07 03:50:46;;;;;;;1.20;0.60;;;16.80;65.00;;;;;;4935179;29;20032;-19
2022/02/07 03:53:11;;;;;;;0.63;0.50;;;16.80;65.00;;;;;;4936127;29;20119;-19
2022/02/07 03:55:39;;;;;;;0.88;0.60;;;16.80;65.00;;;;;;4937554;29;20048;-19
2022/02/07 03:58:05;;;;;;;0.50;0.47;;;16.80;64.90;;;;;;4936558;29;20042;-19
2022/02/07 04:00:32;;;;;;;0.80;0.68;;;16.80;65.10;;;;;;4938782;29;20036;-18
2022/02/07 04:03:02;;;;;;;0.50;0.50;;;16.80;65.10;;;;;;4939085;29;20404;-19
2022/02/07 04:05:48;;;;;;;1.42;0.80;;;16.80;65.10;;;;;;4934977;29;20515;-19
2022/02/07 04:08:14;;;;;;;0.68;0.68;;;16.80;65.10;;;;;;4927266;29;20064;-19
2022/02/07 04:10:53;;;;;;;0.90;0.65;;;16.80;65.10;;;;;;4938968;29;20035;-19
2022/02/07 04:13:26;;;;;;;0.73;0.63;;;16.70;65.20;;;;;;4938591;29;20032;-19
2022/02/07 04:15:54;;;;;;;0.80;0.65;;;16.80;65.20;;;;;;4930336;29;20038;-19
2022/02/07 04:18:20;;;;;;;0.70;0.50;;;16.80;65.20;;;;;;4920578;29;20055;-19
2022/02/07 04:20:45;;;;;;;0.77;0.70;;;16.70;65.20;;;;;;4920299;29;20043;-19
2022/02/07 04:23:11;;;;;;;0.85;0.60;;;16.80;65.10;;;;;;4934633;29;20090;-19
2022/02/07 04:25:36;;;;;;;0.85;0.50;;;16.70;65.10;;;;;;4938968;29;20489;-19
2022/02/07 04:28:02;;;;;;;0.80;0.80;;;16.80;65.10;;;;;;4935937;29;20032;-19
2022/02/07 04:30:28;;;;;;;0.60;0.40;;;16.80;65.10;;;;;;4930552;29;20032;-18
2022/02/07 04:32:53;;;;;;;1.10;0.50;;;16.70;65.20;;;;;;4934160;29;20383;-18
2022/02/07 04:35:19;;;;;;;0.57;0.57;;;16.70;65.30;;;;;;4953590;29;20035;-19
2022/02/07 04:37:45;;;;;;;0.55;0.50;;;16.70;65.40;;;;;;4948856;29;20505;-18
2022/02/07 04:40:10;;;;;;;0.70;0.55;;;16.70;65.40;;;;;;4939073;29;20066;-19
2022/02/07 04:42:36;;;;;;;0.85;0.85;;;16.70;65.50;;;;;;4935599;29;20027;-18
2022/02/07 04:57:54;;;;;;;0.77;0.50;;;16.70;65.40;;;;;;4938448;29;20082;-19
2022/02/07 05:15:50;;;;;;;0.35;0.30;;;16.70;65.20;;;;;;4932682;29;20476;-19
2022/02/07 05:18:17;;;;;;;0.50;0.50;;;16.70;65.20;;;;;;4942066;29;20031;-19
2022/02/07 05:20:43;;;;;;;0.73;0.50;;;16.70;65.30;;;;;;4935745;29;20042;-19
2022/02/07 05:23:08;;;;;;;0.70;0.52;;;16.70;65.30;;;;;;4938027;29;20520;-20
2022/02/07 05:25:34;;;;;;;0.70;0.60;;;16.70;65.60;;;;;;4941569;29;20107;-19
2022/02/07 05:27:59;;;;;;;0.88;0.57;;;16.60;65.60;;;;;;4941388;29;20493;-19
2022/02/07 05:30:25;;;;;;;0.80;0.60;;;16.70;65.60;;;;;;4927847;29;20031;-19
2022/02/07 05:32:51;;;;;;;0.73;0.73;;;16.70;65.40;;;;;;4940790;29;20484;-19
2022/02/07 05:35:16;;;;;;;1.60;0.60;;;16.70;65.50;;;;;;4935775;29;20043;-19
2022/02/07 05:37:42;;;;;;;0.80;0.50;;;16.60;65.50;;;;;;4934753;29;20025;-19
2022/02/07 05:40:14;;;;;;;2.28;0.80;;;16.60;65.50;;;;;;4929875;29;20031;-19
2022/02/07 05:42:39;;;;;;;0.80;0.60;;;16.60;65.70;;;;;;4933136;29;20042;-19
2022/02/07 05:45:07;;;;;;;1.00;0.77;;;16.60;65.50;;;;;;4936235;29;20039;-18
2022/02/07 05:47:34;;;;;;;0.52;0.50;;;16.60;65.70;;;;;;4939591;29;20139;-19
2022/02/07 05:50:00;;;;;;;0.80;0.47;;;16.60;65.70;;;;;;4941679;29;20060;-19
2022/02/07 05:52:25;;;;;;;1.08;0.60;;;16.60;65.70;;;;;;4927689;29;20027;-19
2022/02/07 05:54:51;;;;;;;1.00;0.65;;;16.60;65.60;;;;;;4934869;29;20036;-19
2022/02/07 05:57:17;;;;;;;0.47;0.38;;;16.60;65.60;;;;;;4929307;29;20052;-19
2022/02/07 05:59:42;;;;;;;1.42;0.70;;;16.60;65.50;;;;;;4928764;29;20423;-19
2022/02/07 06:02:08;;;;;;;0.70;0.55;;;16.60;65.60;;;;;;4937956;29;20481;-19
2022/02/07 06:04:33;;;;;;;0.52;0.43;;;16.60;65.60;;;;;;4934993;29;20066;-18
2022/02/07 06:06:59;;;;;;;0.93;0.57;;;16.60;65.50;;;;;;4938699;29;20515;-18
2022/02/07 06:09:25;;;;;;;0.55;0.40;;;16.70;65.40;;;;;;4941431;29;20370;-19
2022/02/07 06:11:50;;;;;;;0.70;0.50;;;16.60;65.50;;;;;;4941174;29;20019;-18
2022/02/07 06:14:16;;;;;;;0.70;0.40;;;16.60;65.50;;;;;;4941070;29;20114;-18
2022/02/07 06:16:41;;;;;;;0.47;0.40;;;16.60;65.50;;;;;;4926661;29;20034;-19
2022/02/07 06:19:07;;;;;;;1.25;0.60;;;16.60;65.40;;;;;;4941196;29;20107;-19
2022/02/07 06:21:34;;;;;;;0.82;0.60;;;16.60;65.90;;;;;;4940832;29;20039;-19
2022/02/07 06:24:02;;;;;;;0.40;0.40;;;16.70;65.40;;;;;;4939653;29;20071;-18
2022/02/07 06:26:28;;;;;;;0.50;0.47;;;16.70;65.30;;;;;;4936747;29;20036;-19
2022/02/07 06:28:55;;;;;;;1.17;0.60;;;16.60;65.40;;;;;;4932069;29;20036;-19
2022/02/07 06:31:20;;;;;;;0.50;0.50;;;16.60;65.50;;;;;;4929442;29;20032;-19
2022/02/07 06:33:46;;;;;;;0.55;0.40;;;16.60;65.50;;;;;;4936897;29;20028;-19
2022/02/07 06:36:12;;;;;;;0.43;0.40;;;16.60;65.30;;;;;;4938089;29;20028;-19
2022/02/07 06:38:37;;;;;;;0.50;0.43;;;16.60;65.30;;;;;;4939280;29;20059;-19
2022/02/07 06:41:03;;;;;;;1.00;0.77;;;16.60;65.40;;;;;;4939340;29;20099;-19
2022/02/07 06:43:28;;;;;;;0.57;0.52;;;16.60;65.60;;;;;;4939764;29;20031;-19
2022/02/07 06:45:54;;;;;;;0.47;0.40;;;16.60;65.60;;;;;;4932785;29;20620;-19
2022/02/07 06:48:20;;;;;;;0.65;0.32;;;16.60;65.30;;;;;;4939093;29;20130;-19
2022/02/07 06:50:45;;;;;;;0.50;0.50;;;16.60;65.30;;;;;;4939536;29;20020;-20
2022/02/07 06:53:11;;;;;;;0.50;0.40;;;16.60;65.40;;;;;;4937886;29;20028;-19
2022/02/07 06:55:37;;;;;;;1.45;0.60;;;16.60;65.50;;;;;;4937862;29;20020;-19
2022/02/07 06:58:02;;;;;;;0.55;0.55;;;16.60;65.40;;;;;;4936325;29;20023;-18
2022/02/07 07:00:28;;;;;;;0.40;0.40;;;16.60;65.40;;;;;;4938130;29;20499;-18
2022/02/07 07:02:53;;;;;;;0.43;0.40;;;16.60;65.30;;;;;;4936614;29;20036;-18
2022/02/07 07:05:22;;;;;;;0.80;0.70;;;16.60;65.50;;;;;;4935373;29;20024;-18
2022/02/07 07:07:48;;;;;;;0.98;0.60;;;16.60;66.20;;;;;;4936192;29;20039;-19
2022/02/07 07:10:15;;;;;;;1.08;0.63;;;16.60;65.40;;;;;;4935370;29;20031;-19
2022/02/07 07:12:43;;;;;;;1.00;0.60;;;16.60;65.40;;;;;;4935995;29;20059;-19
2022/02/07 07:15:26;;;;;;;0.50;0.50;;;16.60;65.30;;;;;;4937424;29;20024;-19
2022/02/07 07:17:52;;;;;;;0.70;0.50;;;16.60;65.20;;;;;;4938128;29;20099;-18
2022/02/07 07:20:18;;;;;;;0.80;0.55;;;16.60;65.40;;;;;;4936287;29;20028;-19
2022/02/07 07:22:44;;;;;;;0.57;0.50;;;16.60;65.30;;;;;;4938370;29;20107;-19
2022/02/07 07:25:16;;;;;;;0.50;0.30;;;16.60;65.50;;;;;;4938611;29;20066;-20
2022/02/07 07:28:26;;;;;;;0.80;0.80;;;16.60;65.40;;;;;;4936020;29;20039;-19
2022/02/07 07:30:35;;;;;;;0.63;0.60;;;16.60;65.30;;;;;;4935162;29;20047;-19
2022/02/07 07:33:05;;;;;;;0.40;0.32;;;16.60;65.30;;;;;;4938619;29;20503;-19
2022/02/07 07:35:31;;;;;;;0.98;0.70;;;16.60;65.10;;;;;;4939513;29;20106;-19
2022/02/07 07:37:57;;;;;;;0.85;0.50;;;16.60;65.10;;;;;;4938839;29;20110;-18
2022/02/07 07:40:22;;;;;;;0.70;0.65;;;16.60;65.20;;;;;;4938276;28;20023;-19
2022/02/07 07:42:54;;;;;;;0.85;0.85;;;16.60;65.70;;;;;;4937319;28;20046;-19
2022/02/07 07:45:23;;;;;;;0.68;0.50;;;16.60;65.40;;;;;;4928762;28;20053;-18
2022/02/07 07:47:50;;;;;;;1.38;0.30;;;16.60;65.40;;;;;;4937465;28;20485;-19
2022/02/07 07:50:24;;;;;;;0.75;0.47;;;16.60;66.10;;;;;;4936765;28;20043;-18
2022/02/07 08:03:18;;;;;;;1.00;0.63;;;16.50;65.20;;;;;;4935841;28;20059;-19
2022/02/07 08:05:53;;;;;;;0.90;0.70;;;16.50;65.30;;;;;;4936863;29;20055;-18
2022/02/07 08:08:36;;;;;;;3.22;1.00;;;16.50;65.40;;;;;;4935539;28;20059;-19
2022/02/07 08:11:06;;;;;;;0.98;0.90;;;16.50;65.60;;;;;;4937094;28;20051;-19
2022/02/07 08:13:33;;;;;;;1.48;1.33;;;16.50;65.80;;;;;;4933453;28;20078;-19
2022/02/07 08:15:58;;;;;;;2.00;1.17;;;16.50;65.70;;;;;;4937216;28;20046;-19
2022/02/07 08:18:24;;;;;;;1.52;1.30;;;16.50;65.70;;;;;;4933690;28;20043;-19
2022/02/07 08:20:50;;;;;;;3.13;1.67;;;16.60;65.90;;;;;;4936991;28;20039;-19
2022/02/07 08:23:15;;;;;;;1.63;1.52;;;16.60;65.90;;;;;;4932451;28;20071;-19
2022/02/07 08:25:41;;;;;;;1.75;1.25;;;16.60;65.90;;;;;;4933306;28;20043;-19
2022/02/07 08:28:07;;;;;;;1.88;1.10;;;16.60;65.80;;;;;;4935895;28;20055;-19
2022/02/07 08:30:33;;;;;;;1.92;1.55;;;16.60;65.90;;;;;;4935516;28;20050;-20
2022/02/07 08:33:00;;;;;;;1.52;1.25;;;16.60;66.00;;;;;;4932989;28;20072;-19
2022/02/07 08:35:26;;;;;;;1.15;1.05;;;16.50;65.90;;;;;;4934059;28;20091;-19
2022/02/07 08:37:52;;;;;;;1.80;1.00;;;16.50;65.90;;;;;;4931016;28;20056;-19
2022/02/07 08:40:17;;;;;;;1.80;1.48;;;16.60;66.10;;;;;;4936372;28;20115;-18
2022/02/07 08:42:43;;;;;;;1.80;1.40;;;16.60;65.80;;;;;;4932042;28;20111;-18
2022/02/07 08:45:10;;;;;;;1.38;1.27;;;16.60;65.90;;;;;;4937290;28;20408;-18
2022/02/07 08:47:35;;;;;;;1.25;1.15;;;16.60;65.90;;;;;;4936854;28;20111;-18
2022/02/07 08:50:02;;;;;;;1.67;1.30;;;16.60;65.80;;;;;;4933595;28;20055;-19
2022/02/07 08:52:27;;;;;;;1.40;1.30;;;16.70;65.70;;;;;;4936521;28;20521;-19
2022/02/07 08:54:56;;;;;;;1.08;0.95;;;16.60;65.60;;;;;;4930858;28;20455;-19
2022/02/07 08:57:33;;;;;;;2.35;1.08;;;16.60;65.70;;;;;;4930325;28;20052;-19
2022/02/07 09:00:22;;;;;;;1.25;0.90;;;16.60;65.60;;;;;;4932201;28;20059;-19
2022/02/07 09:07:52;;;;;;;1.30;1.00;;;16.70;65.40;;;;;;4951324;28;20054;-19
2022/02/07 09:10:18;;;;;;;0.90;0.82;;;16.70;65.50;;;;;;4951178;28;20560;-19
2022/02/07 09:12:46;;;;;;;1.60;1.30;;;16.70;65.30;;;;;;4949214;28;20047;-19
2022/02/07 09:17:56;;;;;;;2.90;1.10;;;16.70;65.30;;;;;;4949638;28;20058;-19
2022/02/07 09:20:21;;;;;;;1.80;1.30;;;16.70;65.50;;;;;;4936308;28;20139;-19
2022/02/07 09:22:48;;;;;;;0.95;0.82;;;16.70;65.80;;;;;;4950686;28;20066;-19
2022/02/07 09:25:14;;;;;;;1.35;1.25;;;16.70;65.80;;;;;;4953243;28;20102;-19
2022/02/07 09:27:40;;;;;;;1.45;0.98;;;16.70;65.90;;;;;;4963385;28;20055;-19
2022/02/07 09:30:07;;;;;;;2.53;1.20;;;16.80;65.70;;;;;;4947441;29;20531;-19
2022/02/07 09:32:33;;;;;;;1.65;0.80;;;16.80;66.10;;;;;;4953192;28;20051;-19
2022/02/07 09:34:59;;;;;;;0.73;0.73;;;16.80;65.50;;;;;;4948458;28;20055;-19
2022/02/07 09:37:24;;;;;;;0.88;0.70;;;16.80;65.50;;;;;;4956244;28;20408;-19
2022/02/07 09:39:50;;;;;;;0.93;0.80;;;16.80;65.70;;;;;;4950477;28;20129;-19
2022/02/07 09:42:16;;;;;;;1.35;1.23;;;16.80;65.60;;;;;;4959539;28;20079;-19
2022/02/07 09:44:46;;;;;;;4.80;0.98;;;16.80;65.50;;;;;;4955050;28;20114;-19
2022/02/07 09:47:12;;;;;;;1.30;1.00;;;16.80;65.50;;;;;;4938247;29;20047;-19
2022/02/07 09:49:37;;;;;;;0.70;0.70;;;16.80;65.40;;;;;;4951040;28;20600;-19
2022/02/07 09:52:05;;;;;;;2.38;0.90;;;16.90;65.70;;;;;;4953791;28;20072;-19
2022/02/07 09:54:31;;;;;;;2.35;0.60;;;16.90;65.40;;;;;;4952995;28;20044;-19
2022/02/07 09:56:57;;;;;;;1.08;0.80;;;16.90;65.50;;;;;;4950249;28;20055;-19
2022/02/07 09:59:27;;;;;;;1.17;0.80;;;16.90;65.40;;;;;;4944568;28;20075;-19
2022/02/07 10:01:56;;;;;;;1.25;0.80;;;16.90;65.60;;;;;;4940079;28;20055;-18
2022/02/07 10:04:26;;;;;;;2.25;0.70;;;16.90;65.50;;;;;;4940200;28;20083;-19
2022/02/07 10:06:59;;;;;;;1.13;0.80;;;16.90;65.40;;;;;;4946426;28;20047;-19
2022/02/07 10:14:28;;;;;;;1.65;0.98;;;17.00;65.40;;;;;;4955250;28;20058;-19
2022/02/07 10:17:19;;;;;;;1.00;0.90;;;17.00;65.30;;;;;;4944220;28;20054;-19
2022/02/07 10:20:11;;;;;;;1.77;0.80;;;17.00;65.40;;;;;;4936289;28;20055;-19
2022/02/07 10:39:27;;;;;;;1.33;0.60;;;17.20;65.60;;;;;;4950141;28;20058;-19
2022/02/07 10:44:42;;;;;;;1.00;0.77;;;17.30;65.50;;;;;;4929951;28;20040;-18
2022/02/07 10:47:17;;;;;;;0.85;0.60;;;17.30;65.50;;;;;;4929100;28;20071;-19
2022/02/07 10:50:04;;;;;;;0.68;0.65;;;17.40;65.40;;;;;;4943768;28;20412;-21
2022/02/07 10:52:44;;;;;;;0.75;0.65;;;17.40;65.20;;;;;;4931985;28;20051;-18
2022/02/07 10:55:21;;;;;;;1.30;0.70;;;17.40;65.30;;;;;;4962716;28;20066;-19
2022/02/07 10:57:47;;;;;;;1.60;0.70;;;17.40;65.00;;;;;;4959390;28;20077;-19
2022/02/07 11:00:14;;;;;;;0.82;0.68;;;17.50;64.90;;;;;;4952982;28;20067;-19
2022/02/07 11:02:54;;;;;;;1.85;0.60;;;17.50;64.90;;;;;;4962489;28;20192;-19
2022/02/07 11:05:20;;;;;;;2.30;0.70;;;17.50;64.80;;;;;;4963808;28;20050;-19
2022/02/07 11:07:52;;;;;;;2.13;0.90;;;17.50;64.80;;;;;;4956326;28;20052;-19
2022/02/07 11:13:14;;;;;;;2.25;0.77;;;17.50;64.80;;;;;;4916025;28;20086;-19
2022/02/07 11:15:48;;;;;;;1.20;0.68;;;17.50;64.90;;;;;;4954485;28;20069;-19
2022/02/07 11:18:28;;;;;;;1.23;0.77;;;17.50;64.70;;;;;;4956091;28;20051;-19
2022/02/07 11:21:47;;;;;;;3.15;0.73;;;17.50;64.70;;;;;;4935986;28;20059;-19
2022/02/07 11:24:23;;;;;;;4.45;0.80;;;17.60;64.60;;;;;;4952608;28;20946;-19
2022/02/07 11:26:50;;;;;;;1.63;0.55;;;17.60;64.50;;;;;;4957156;28;20059;-18
2022/02/07 11:29:38;;;;;;;1.83;0.60;;;17.60;64.30;;;;;;4948499;28;20051;-19
2022/02/07 11:32:05;;;;;;;0.73;0.50;;;17.70;64.20;;;;;;4956913;28;20047;-19
2022/02/07 11:34:44;;;;;;;3.40;1.05;;;17.70;64.60;;;;;;4959546;28;20470;-19
2022/02/07 11:37:21;;;;;;;2.85;0.70;;;17.60;64.90;;;;;;4939281;28;20119;-19
2022/02/07 11:39:48;;;;;;;1.67;1.00;;;17.60;64.90;;;;;;4956711;28;20102;-19
2022/02/07 11:42:13;;;;;;;1.73;0.82;;;17.60;64.90;;;;;;4954123;28;20055;-19
2022/02/07 11:44:43;;;;;;;1.05;0.85;;;17.60;65.00;;;;;;4938639;28;20047;-18
2022/02/07 11:47:17;;;;;;;4.53;0.90;;;17.60;65.10;;;;;;4598150;28;10000110;-19
2022/02/07 11:49:47;;;;;;;4.97;1.13;;;17.60;65.70;;;;;;4930670;28;20044;-19
2022/02/07 11:52:37;;;;;;;7.43;1.40;;;17.60;65.40;;;;;;4927026;28;20052;-19
2022/02/07 11:55:07;;;;;;;9.32;1.13;;;17.70;65.70;;;;;;4925785;28;20077;-18
2022/02/07 11:57:37;;;;;;;1.40;1.00;;;17.60;65.70;;;;;;4934192;28;20086;-19
2022/02/07 12:00:16;;;;;;;3.17;0.80;;;17.60;65.80;;;;;;4934300;28;20055;-19
2022/02/07 12:02:48;;;;;;;5.40;1.20;;;17.60;65.80;;;;;;4932084;28;20055;-19
2022/02/07 12:05:18;;;;;;;2.08;1.17;;;17.60;66.10;;;;;;4934534;28;20058;-19
2022/02/07 12:07:58;;;;;;;2.17;1.08;;;17.60;65.90;;;;;;4930620;28;20047;-19
2022/02/07 12:12:52;;;;;;;1.92;1.02;;;17.60;65.60;;;;;;4927419;28;20054;-19
2022/02/07 12:15:23;;;;;;;2.53;1.08;;;17.70;65.60;;;;;;4933133;28;20048;-19
2022/02/07 12:17:57;;;;;;;2.65;0.85;;;17.70;65.30;;;;;;4931595;28;20052;-19
2022/02/07 12:20:24;;;;;;;3.43;1.13;;;17.70;65.30;;;;;;4937759;28;20059;-19
2022/02/07 12:23:12;;;;;;;5.10;1.13;;;17.70;65.30;;;;;;4934690;28;20323;-19
2022/02/07 12:25:38;;;;;;;1.10;1.00;;;17.60;65.30;;;;;;4937105;28;20044;-19
2022/02/07 12:28:08;;;;;;;3.95;0.77;;;17.60;65.40;;;;;;4937909;29;20085;-19
2022/02/07 12:33:18;;;;;;;2.03;0.90;;;17.50;65.50;;;;;;4938033;28;20103;-19
2022/02/07 12:35:46;;;;;;;3.13;1.00;;;17.60;65.50;;;;;;4960102;28;20039;-19
2022/02/07 12:38:12;;;;;;;2.35;1.00;;;17.60;65.60;;;;;;4956713;28;20051;-19
2022/02/07 12:40:39;;;;;;;2.47;1.40;;;17.50;65.50;;;;;;4947401;28;20133;-18
2022/02/07 12:43:09;;;;;;;3.88;1.40;;;17.50;65.60;;;;;;4950337;28;20055;-18
2022/02/07 12:45:35;;;;;;;5.93;0.93;;;17.50;65.70;;;;;;4952303;28;20040;-19
2022/02/07 12:48:09;;;;;;;2.22;0.80;;;17.50;65.80;;;;;;4937984;28;20238;-18
2022/02/07 12:50:34;;;;;;;1.88;0.63;;;17.60;65.50;;;;;;4938127;28;20054;-19
2022/02/07 12:53:00;;;;;;;2.15;0.90;;;17.60;65.30;;;;;;4938627;28;20059;-19
2022/02/07 12:55:25;;;;;;;2.63;0.80;;;17.70;65.30;;;;;;4930303;28;20056;-19
2022/02/07 12:57:51;;;;;;;1.33;0.85;;;17.60;65.20;;;;;;4938161;28;20063;-19
2022/02/07 13:00:18;;;;;;;2.50;0.98;;;17.60;65.20;;;;;;4950031;28;20075;-19
2022/02/07 13:02:45;;;;;;;3.03;1.48;;;17.60;65.20;;;;;;4953052;28;20073;-19
2022/02/07 13:05:12;;;;;;;6.25;1.40;;;17.60;65.40;;;;;;4942393;28;20054;-21
2022/02/07 13:07:42;;;;;;;1.08;0.98;;;17.60;65.40;;;;;;4922292;29;20083;-20
2022/02/07 13:10:11;;;;;;;1.10;1.00;;;17.60;65.30;;;;;;4948887;28;20051;-21
2022/02/07 13:15:30;;;;;;;1.92;0.80;;;17.70;65.20;;;;;;4911828;28;20043;-19
2022/02/07 13:18:01;;;;;;;2.63;0.90;;;17.70;65.20;;;;;;4953964;28;20055;-21
2022/02/07 13:20:27;;;;;;;3.90;1.08;;;17.70;65.10;;;;;;4953517;29;20043;-19
2022/02/07 13:23:10;;;;;;;1.60;0.85;;;17.60;65.00;;;;;;4955852;28;20058;-19
2022/02/07 13:25:50;;;;;;;2.13;1.00;;;17.60;65.10;;;;;;4969403;28;20098;-19
2022/02/07 13:28:27;;;;;;;0.98;0.88;;;17.70;65.10;;;;;;4964343;28;20054;-19
2022/02/07 13:30:58;;;;;;;2.40;0.65;;;17.60;65.10;;;;;;4942029;28;20055;-19
2022/02/07 13:33:23;;;;;;;2.53;0.82;;;17.60;65.90;;;;;;4959637;28;20043;-19
2022/02/07 13:35:52;;;;;;;1.65;1.02;;;17.60;65.20;;;;;;4958821;28;20043;-19
2022/02/07 13:38:19;;;;;;;3.28;0.85;;;17.60;65.20;;;;;;4943963;28;20088;-19
2022/02/07 13:40:49;;;;;;;1.13;0.88;;;17.60;65.20;;;;;;4943283;28;20467;-19
2022/02/07 13:43:22;;;;;;;3.22;1.02;;;17.70;65.00;;;;;;4963434;28;20047;-21
2022/02/07 13:45:52;;;;;;;0.90;0.82;;;17.60;65.10;;;;;;4955024;28;20035;-20
2022/02/07 13:48:27;;;;;;;1.20;0.90;;;17.60;65.20;;;;;;4961524;28;20079;-21
2022/02/07 13:50:54;;;;;;;2.90;1.05;;;17.60;65.30;;;;;;4949718;28;20118;-21
2022/02/07 13:53:21;;;;;;;4.53;1.02;;;17.60;65.30;;;;;;4959517;28;20452;-19
2022/02/07 13:55:48;;;;;;;1.63;0.90;;;17.60;65.50;;;;;;4940035;28;20104;-21
2022/02/07 13:58:23;;;;;;;0.85;0.82;;;17.60;65.40;;;;;;4962606;28;20142;-19
2022/02/07 14:00:49;;;;;;;2.83;1.20;;;17.60;65.50;;;;;;4961224;28;20043;-19
2022/02/07 14:03:19;;;;;;;0.80;0.80;;;17.60;65.40;;;;;;4958886;28;20047;-19
2022/02/07 14:05:53;;;;;;;1.25;0.90;;;17.60;65.30;;;;;;4969120;28;20050;-19
2022/02/07 14:08:38;;;;;;;1.20;0.80;;;17.70;65.40;;;;;;4959464;28;20035;-20
2022/02/07 14:11:07;;;;;;;1.08;0.73;;;17.70;65.60;;;;;;4954014;28;20043;-20
2022/02/07 14:13:33;;;;;;;1.77;1.17;;;17.70;65.20;;;;;;4962543;28;20408;-20
2022/02/07 14:15:58;;;;;;;3.10;1.00;;;17.80;65.10;;;;;;4972532;28;20122;-21
2022/02/07 14:18:26;;;;;;;1.15;0.88;;;17.70;65.20;;;;;;4956218;28;20039;-19
2022/02/07 14:20:52;;;;;;;0.80;0.80;;;17.60;65.50;;;;;;4939541;28;20398;-19
2022/02/07 14:23:17;;;;;;;2.88;0.82;;;17.80;65.00;;;;;;4938997;28;20095;-19
2022/02/07 14:25:44;;;;;;;1.13;0.70;;;17.80;64.80;;;;;;4937181;28;20174;-19
2022/02/07 14:28:10;;;;;;;2.33;0.65;;;17.80;64.50;;;;;;4940141;28;20043;-19
2022/02/07 14:30:36;;;;;;;0.93;0.73;;;17.80;64.60;;;;;;4951207;28;20191;-20
2022/02/07 14:33:02;;;;;;;1.30;0.90;;;17.90;64.50;;;;;;4958739;28;20126;-19
2022/02/07 14:35:28;;;;;;;1.40;0.70;;;17.80;64.40;;;;;;4954997;28;20047;-19
2022/02/07 14:37:56;;;;;;;0.90;0.57;;;17.80;64.50;;;;;;4949847;28;20051;-19
2022/02/07 14:40:21;;;;;;;0.65;0.60;;;17.80;64.60;;;;;;4939125;28;20048;-19
2022/02/07 14:42:47;;;;;;;0.50;0.50;;;17.90;64.60;;;;;;4938822;28;20531;-19
2022/02/07 14:45:15;;;;;;;1.45;1.00;;;17.80;64.40;;;;;;4940393;28;20055;-20
2022/02/07 14:50:10;;;;;;;1.73;0.80;;;17.80;64.80;;;;;;4938837;28;20082;-20
2022/02/07 14:52:36;;;;;;;2.17;0.95;;;17.70;65.00;;;;;;4948935;28;20082;-21
2022/02/07 14:55:03;;;;;;;0.80;0.80;;;17.80;65.00;;;;;;4957328;28;20071;-22
2022/02/07 14:57:28;;;;;;;2.30;0.95;;;17.80;64.90;;;;;;4948236;28;20082;-21
2022/02/07 14:59:54;;;;;;;1.08;0.98;;;17.80;64.60;;;;;;4954097;28;20051;-20
2022/02/07 15:02:21;;;;;;;1.75;0.98;;;17.80;65.00;;;;;;4957230;28;20086;-21
2022/02/07 15:04:48;;;;;;;1.30;0.82;;;17.80;65.00;;;;;;4947822;28;20131;-21
2022/02/07 15:07:14;;;;;;;2.00;1.02;;;17.80;65.10;;;;;;4952408;28;20047;-20
2022/02/07 15:09:39;;;;;;;2.60;0.77;;;17.80;65.00;;;;;;4956953;28;20106;-20
2022/02/07 15:12:05;;;;;;;3.92;0.77;;;17.80;64.80;;;;;;4957304;28;20178;-20
2022/02/07 15:14:31;;;;;;;1.13;0.73;;;17.80;64.90;;;;;;4970615;28;20416;-21
2022/02/07 15:16:56;;;;;;;2.80;0.60;;;17.80;64.90;;;;;;4950956;28;20047;-21
2022/02/07 15:19:24;;;;;;;0.82;0.80;;;17.80;65.00;;;;;;4952945;28;20055;-21
2022/02/07 15:21:50;;;;;;;1.35;1.00;;;17.80;64.80;;;;;;4949199;28;20524;-21
2022/02/07 15:24:16;;;;;;;1.02;0.90;;;17.80;64.90;;;;;;4938489;28;20062;-21